METAR Data
IDs: Format: Raw Decoded Include TAF

Data at: 2129 UTC 01 Dec 2021

METAR for:KHAO (Hamilton/Butler Cnty, OH, US)
Text:KHAO 012118Z AUTO 00000KT 10SM BKN029 OVC055 09/06 A2989 RMK AO2 RAB2059E09 P0000 T00940061
Temperature: 9.4°C ( 49°F)
Dewpoint: 6.1°C ( 43°F) [RH = 80%]
Pressure (altimeter):29.89 inches Hg (1012.3 mb)
Winds:calm
Visibility:10 or more sm (16+ km)
Ceiling:2900 feet AGL
Clouds: broken clouds at 2900 feet AGL, overcast cloud deck at 5500 feet AGL
QC Flag:automated observation with no human augmentation